sensor_id;sensor_type;location;lat;lon;timestamp;pressure;altitude;pressure_sealevel;temperature;humidity
36598;BME280;22607;49.550;11.940;2023-08-31T00:00:32;96149.19;;;14.20;100.00
36598;BME280;22607;49.550;11.940;2023-08-31T00:03:22;96158.53;;;14.23;100.00
36598;BME280;22607;49.550;11.940;2023-08-31T00:05:48;96152.97;;;14.31;100.00
36598;BME280;22607;49.550;11.940;2023-08-31T00:08:17;96169.22;;;14.35;100.00
36598;BME280;22607;49.550;11.940;2023-08-31T00:10:44;96173.03;;;14.46;100.00
36598;BME280;22607;49.550;11.940;2023-08-31T00:13:22;96180.97;;;14.39;100.00
36598;BME280;22607;49.550;11.940;2023-08-31T00:15:49;96171.81;;;14.41;100.00
36598;BME280;22607;49.550;11.940;2023-08-31T00:18:15;96180.16;;;14.38;100.00
36598;BME280;22607;49.550;11.940;2023-08-31T00:20:53;96186.72;;;14.29;100.00
36598;BME280;22607;49.550;11.940;2023-08-31T00:23:20;96189.41;;;14.22;100.00
36598;BME280;22607;49.550;11.940;2023-08-31T00:25:47;96180.41;;;14.30;100.00
36598;BME280;22607;49.550;11.940;2023-08-31T00:28:17;96190.03;;;14.50;100.00
36598;BME280;22607;49.550;11.940;2023-08-31T00:30:45;96196.88;;;14.32;100.00
36598;BME280;22607;49.550;11.940;2023-08-31T00:33:13;96200.06;;;14.41;100.00
36598;BME280;22607;49.550;11.940;2023-08-31T00:35:41;96198.81;;;14.43;100.00
36598;BME280;22607;49.550;11.940;2023-08-31T00:38:22;96189.41;;;14.22;100.00
36598;BME280;22607;49.550;11.940;2023-08-31T00:41:17;96207.34;;;14.07;100.00
36598;BME280;22607;49.550;11.940;2023-08-31T00:43:44;96202.41;;;14.24;100.00
36598;BME280;22607;49.550;11.940;2023-08-31T00:46:17;96195.53;;;14.16;100.00
36598;BME280;22607;49.550;11.940;2023-08-31T00:48:43;96214.84;;;14.10;100.00
36598;BME280;22607;49.550;11.940;2023-08-31T00:51:10;96198.97;;;14.16;100.00
36598;BME280;22607;49.550;11.940;2023-08-31T00:53:37;96209.53;;;14.16;100.00
36598;BME280;22607;49.550;11.940;2023-08-31T00:56:04;96205.41;;;14.27;100.00
36598;BME280;22607;49.550;11.940;2023-08-31T00:58:31;96192.84;;;14.23;100.00
36598;BME280;22607;49.550;11.940;2023-08-31T01:01:26;96193.41;;;14.31;100.00
36598;BME280;22607;49.550;11.940;2023-08-31T01:04:16;96209.78;;;14.08;100.00
36598;BME280;22607;49.550;11.940;2023-08-31T01:09:39;96208.53;;;14.17;100.00
36598;BME280;22607;49.550;11.940;2023-08-31T01:12:09;96209.69;;;14.22;100.00
36598;BME280;22607;49.550;11.940;2023-08-31T01:14:47;96195.91;;;14.20;100.00
36598;BME280;22607;49.550;11.940;2023-08-31T01:17:17;96199.00;;;14.10;100.00
36598;BME280;22607;49.550;11.940;2023-08-31T01:19:51;96196.88;;;14.32;100.00
36598;BME280;22607;49.550;11.940;2023-08-31T01:22:31;96189.19;;;14.24;100.00
36598;BME280;22607;49.550;11.940;2023-08-31T01:25:01;96188.97;;;14.25;100.00
36598;BME280;22607;49.550;11.940;2023-08-31T01:27:43;96197.41;;;14.02;100.00
36598;BME280;22607;49.550;11.940;2023-08-31T01:30:10;96202.84;;;14.14;100.00
36598;BME280;22607;49.550;11.940;2023-08-31T01:33:02;96211.56;;;14.14;100.00
36598;BME280;22607;49.550;11.940;2023-08-31T01:35:35;96200.00;;;14.15;100.00
36598;BME280;22607;49.550;11.940;2023-08-31T01:38:12;96205.22;;;14.29;100.00
36598;BME280;22607;49.550;11.940;2023-08-31T01:41:12;96208.53;;;14.17;100.00
36598;BME280;22607;49.550;11.940;2023-08-31T01:43:40;96203.84;;;14.20;100.00
36598;BME280;22607;49.550;11.940;2023-08-31T01:46:08;96202.75;;;14.34;100.00
36598;BME280;22607;49.550;11.940;2023-08-31T01:51:44;96193.03;;;14.28;100.00
36598;BME280;22607;49.550;11.940;2023-08-31T01:54:10;96200.72;;;14.36;100.00
36598;BME280;22607;49.550;11.940;2023-08-31T01:56:37;96197.88;;;14.31;100.00
36598;BME280;22607;49.550;11.940;2023-08-31T01:59:20;96200.38;;;14.19;100.00
36598;BME280;22607;49.550;11.940;2023-08-31T02:01:46;96195.63;;;13.96;100.00
36598;BME280;22607;49.550;11.940;2023-08-31T02:04:13;96203.09;;;14.06;100.00
36598;BME280;22607;49.550;11.940;2023-08-31T02:06:40;96212.44;;;14.08;100.00
36598;BME280;22607;49.550;11.940;2023-08-31T02:09:06;96213.06;;;13.97;100.00
36598;BME280;22607;49.550;11.940;2023-08-31T02:11:33;96221.97;;;14.09;100.00
36598;BME280;22607;49.550;11.940;2023-08-31T02:14:04;96209.34;;;14.11;100.00
36598;BME280;22607;49.550;11.940;2023-08-31T02:19:43;96229.56;;;13.85;100.00
36598;BME280;22607;49.550;11.940;2023-08-31T02:22:10;96215.28;;;14.00;100.00
36598;BME280;22607;49.550;11.940;2023-08-31T02:24:37;96226.00;;;14.12;100.00
36598;BME280;22607;49.550;11.940;2023-08-31T02:27:16;96232.97;;;13.93;100.00
36598;BME280;22607;49.550;11.940;2023-08-31T02:29:43;96237.47;;;13.85;100.00
36598;BME280;22607;49.550;11.940;2023-08-31T02:32:15;96229.16;;;13.75;100.00
36598;BME280;22607;49.550;11.940;2023-08-31T02:34:41;96234.97;;;14.04;100.00
36598;BME280;22607;49.550;11.940;2023-08-31T02:37:08;96222.34;;;14.13;100.00
36598;BME280;22607;49.550;11.940;2023-08-31T02:39:49;96226.81;;;14.12;100.00
36598;BME280;22607;49.550;11.940;2023-08-31T02:42:20;96227.16;;;14.29;100.00
36598;BME280;22607;49.550;11.940;2023-08-31T02:44:51;96230.66;;;14.16;100.00
36598;BME280;22607;49.550;11.940;2023-08-31T02:47:18;96225.22;;;14.04;100.00
36598;BME280;22607;49.550;11.940;2023-08-31T02:49:47;96223.22;;;14.00;100.00
36598;BME280;22607;49.550;11.940;2023-08-31T02:52:14;96239.38;;;14.24;100.00
36598;BME280;22607;49.550;11.940;2023-08-31T02:54:41;96224.59;;;14.09;100.00
36598;BME280;22607;49.550;11.940;2023-08-31T02:57:20;96239.47;;;13.97;100.00
36598;BME280;22607;49.550;11.940;2023-08-31T02:59:51;96245.16;;;13.94;100.00
36598;BME280;22607;49.550;11.940;2023-08-31T03:02:17;96236.63;;;13.98;100.00
36598;BME280;22607;49.550;11.940;2023-08-31T03:04:44;96238.66;;;13.96;100.00
36598;BME280;22607;49.550;11.940;2023-08-31T03:07:17;96235.44;;;13.81;100.00
36598;BME280;22607;49.550;11.940;2023-08-31T03:09:48;96240.13;;;13.78;100.00
36598;BME280;22607;49.550;11.940;2023-08-31T03:12:16;96244.22;;;13.68;100.00
36598;BME280;22607;49.550;11.940;2023-08-31T03:14:42;96245.63;;;13.70;100.00
36598;BME280;22607;49.550;11.940;2023-08-31T03:17:09;96239.53;;;13.70;100.00
36598;BME280;22607;49.550;11.940;2023-08-31T03:19:35;96242.31;;;13.88;100.00
36598;BME280;22607;49.550;11.940;2023-08-31T03:22:10;96242.75;;;13.92;100.00
36598;BME280;22607;49.550;11.940;2023-08-31T03:24:37;96244.34;;;14.00;100.00
36598;BME280;22607;49.550;11.940;2023-08-31T03:27:04;96240.25;;;14.04;100.00
36598;BME280;22607;49.550;11.940;2023-08-31T03:29:42;96261.19;;;14.06;100.00
36598;BME280;22607;49.550;11.940;2023-08-31T03:32:09;96249.63;;;14.00;100.00
36598;BME280;22607;49.550;11.940;2023-08-31T03:34:58;96265.91;;;13.70;100.00
36598;BME280;22607;49.550;11.940;2023-08-31T03:37:26;96249.25;;;13.89;100.00
36598;BME280;22607;49.550;11.940;2023-08-31T03:40:17;96257.75;;;13.91;100.00
36598;BME280;22607;49.550;11.940;2023-08-31T03:42:43;96249.63;;;14.00;100.00
36598;BME280;22607;49.550;11.940;2023-08-31T03:45:21;96255.28;;;14.03;100.00
36598;BME280;22607;49.550;11.940;2023-08-31T03:47:48;96259.56;;;13.91;100.00
36598;BME280;22607;49.550;11.940;2023-08-31T03:50:16;96268.09;;;14.00;100.00
36598;BME280;22607;49.550;11.940;2023-08-31T03:52:42;96263.44;;;13.88;100.00
36598;BME280;22607;49.550;11.940;2023-08-31T03:55:09;96271.97;;;13.90;100.00
36598;BME280;22607;49.550;11.940;2023-08-31T03:57:36;96278.50;;;13.88;100.00
36598;BME280;22607;49.550;11.940;2023-08-31T04:00:07;96272.44;;;13.60;100.00
36598;BME280;22607;49.550;11.940;2023-08-31T04:02:35;96269.56;;;13.75;100.00
36598;BME280;22607;49.550;11.940;2023-08-31T04:05:02;96284.59;;;13.75;100.00
36598;BME280;22607;49.550;11.940;2023-08-31T04:07:33;96290.69;;;13.69;100.00
36598;BME280;22607;49.550;11.940;2023-08-31T04:10:00;96294.34;;;13.68;100.00
36598;BME280;22607;49.550;11.940;2023-08-31T04:12:27;96295.78;;;13.57;100.00
36598;BME280;22607;49.550;11.940;2023-08-31T04:14:56;96297.00;;;13.54;100.00
36598;BME280;22607;49.550;11.940;2023-08-31T04:17:22;96294.75;;;13.51;100.00
36598;BME280;22607;49.550;11.940;2023-08-31T04:19:50;96306.53;;;13.55;100.00
36598;BME280;22607;49.550;11.940;2023-08-31T04:22:16;96316.25;;;13.41;100.00
36598;BME280;22607;49.550;11.940;2023-08-31T04:25:04;96310.78;;;13.56;100.00
36598;BME280;22607;49.550;11.940;2023-08-31T04:27:30;96310.78;;;13.56;100.00
36598;BME280;22607;49.550;11.940;2023-08-31T04:30:13;96311.22;;;13.67;100.00
36598;BME280;22607;49.550;11.940;2023-08-31T04:32:39;96316.28;;;13.55;100.00
36598;BME280;22607;49.550;11.940;2023-08-31T04:35:06;96317.47;;;13.65;100.00
36598;BME280;22607;49.550;11.940;2023-08-31T04:37:33;96330.47;;;13.60;100.00
36598;BME280;22607;49.550;11.940;2023-08-31T04:40:00;96330.28;;;13.48;100.00
36598;BME280;22607;49.550;11.940;2023-08-31T04:42:28;96316.28;;;13.61;100.00
36598;BME280;22607;49.550;11.940;2023-08-31T04:44:55;96339.41;;;13.52;100.00
36598;BME280;22607;49.550;11.940;2023-08-31T04:47:22;96336.19;;;13.50;100.00
36598;BME280;22607;49.550;11.940;2023-08-31T04:49:49;96342.44;;;13.56;100.00
36598;BME280;22607;49.550;11.940;2023-08-31T04:52:15;96343.47;;;13.55;100.00
36598;BME280;22607;49.550;11.940;2023-08-31T04:54:42;96335.56;;;13.55;100.00
36598;BME280;22607;49.550;11.940;2023-08-31T04:57:10;96347.31;;;13.73;100.00
36598;BME280;22607;49.550;11.940;2023-08-31T04:59:36;96361.34;;;13.53;100.00
36598;BME280;22607;49.550;11.940;2023-08-31T05:02:03;96356.84;;;13.60;100.00
36598;BME280;22607;49.550;11.940;2023-08-31T05:04:32;96349.94;;;13.46;100.00
36598;BME280;22607;49.550;11.940;2023-08-31T05:06:58;96370.44;;;13.37;100.00
36598;BME280;22607;49.550;11.940;2023-08-31T05:09:25;96367.00;;;13.57;100.00
36598;BME280;22607;49.550;11.940;2023-08-31T05:11:52;96368.22;;;13.61;100.00
36598;BME280;22607;49.550;11.940;2023-08-31T05:14:19;96377.19;;;13.73;100.00
36598;BME280;22607;49.550;11.940;2023-08-31T05:16:45;96382.66;;;13.65;100.00
36598;BME280;22607;49.550;11.940;2023-08-31T05:19:12;96391.97;;;13.81;100.00
36598;BME280;22607;49.550;11.940;2023-08-31T05:21:39;96393.41;;;13.63;100.00
36598;BME280;22607;49.550;11.940;2023-08-31T05:24:05;96395.22;;;13.70;100.00
36598;BME280;22607;49.550;11.940;2023-08-31T05:26:48;96396.25;;;13.69;100.00
36598;BME280;22607;49.550;11.940;2023-08-31T05:29:15;96391.78;;;13.76;100.00
36598;BME280;22607;49.550;11.940;2023-08-31T05:31:43;96400.00;;;14.40;100.00
36598;BME280;22607;49.550;11.940;2023-08-31T05:34:10;96391.75;;;14.89;100.00
36598;BME280;22607;49.550;11.940;2023-08-31T05:36:36;96393.25;;;14.58;100.00
36598;BME280;22607;49.550;11.940;2023-08-31T05:39:12;96400.69;;;14.02;100.00
36598;BME280;22607;49.550;11.940;2023-08-31T05:41:42;96397.25;;;13.95;100.00
36598;BME280;22607;49.550;11.940;2023-08-31T05:44:35;96401.69;;;14.21;100.00
36598;BME280;22607;49.550;11.940;2023-08-31T05:47:01;96405.97;;;14.02;100.00
36598;BME280;22607;49.550;11.940;2023-08-31T05:49:30;96413.50;;;14.05;100.00
36598;BME280;22607;49.550;11.940;2023-08-31T05:55:10;96407.94;;;14.40;100.00
36598;BME280;22607;49.550;11.940;2023-08-31T05:57:37;96420.53;;;14.52;100.00
36598;BME280;22607;49.550;11.940;2023-08-31T06:00:05;96423.16;;;15.18;100.00
36598;BME280;22607;49.550;11.940;2023-08-31T06:02:33;96407.22;;;15.57;100.00
36598;BME280;22607;49.550;11.940;2023-08-31T06:05:02;96429.28;;;15.05;100.00
36598;BME280;22607;49.550;11.940;2023-08-31T06:07:30;96419.97;;;14.36;100.00
36598;BME280;22607;49.550;11.940;2023-08-31T06:09:57;96430.91;;;14.47;100.00
36598;BME280;22607;49.550;11.940;2023-08-31T06:12:23;96428.06;;;14.48;100.00
36598;BME280;22607;49.550;11.940;2023-08-31T06:14:50;96433.09;;;15.22;100.00
36598;BME280;22607;49.550;11.940;2023-08-31T06:17:16;96425.91;;;15.37;100.00
36598;BME280;22607;49.550;11.940;2023-08-31T06:19:57;96436.03;;;14.94;100.00
36598;BME280;22607;49.550;11.940;2023-08-31T06:22:23;96437.50;;;15.29;100.00
36598;BME280;22607;49.550;11.940;2023-08-31T06:27:45;96449.63;;;15.75;100.00
36598;BME280;22607;49.550;11.940;2023-08-31T06:30:12;96456.06;;;15.22;100.00
36598;BME280;22607;49.550;11.940;2023-08-31T06:32:46;96447.53;;;15.59;100.00
36598;BME280;22607;49.550;11.940;2023-08-31T06:35:35;96453.88;;;16.16;100.00
36598;BME280;22607;49.550;11.940;2023-08-31T06:38:02;96446.97;;;16.08;100.00
36598;BME280;22607;49.550;11.940;2023-08-31T06:40:42;96443.09;;;15.78;100.00
36598;BME280;22607;49.550;11.940;2023-08-31T06:43:08;96438.16;;;17.45;99.57
36598;BME280;22607;49.550;11.940;2023-08-31T06:45:35;96456.97;;;17.98;93.61
36598;BME280;22607;49.550;11.940;2023-08-31T06:48:02;96442.72;;;17.80;88.74
36598;BME280;22607;49.550;11.940;2023-08-31T06:50:32;96453.88;;;18.01;87.51
36598;BME280;22607;49.550;11.940;2023-08-31T06:52:59;96464.56;;;17.82;93.98
36598;BME280;22607;49.550;11.940;2023-08-31T06:55:26;96459.66;;;17.55;95.78
36598;BME280;22607;49.550;11.940;2023-08-31T06:57:52;96454.25;;;18.41;93.94
36598;BME280;22607;49.550;11.940;2023-08-31T07:00:22;96450.13;;;19.10;84.96
36598;BME280;22607;49.550;11.940;2023-08-31T07:02:49;96459.16;;;19.84;80.09
36598;BME280;22607;49.550;11.940;2023-08-31T07:05:15;96459.63;;;19.06;83.33
36598;BME280;22607;49.550;11.940;2023-08-31T07:07:42;96460.28;;;19.71;77.29
36598;BME280;22607;49.550;11.940;2023-08-31T07:10:09;96450.06;;;19.51;76.06
36598;BME280;22607;49.550;11.940;2023-08-31T07:12:36;96461.13;;;18.89;82.43
36598;BME280;22607;49.550;11.940;2023-08-31T07:15:03;96462.81;;;19.20;78.49
36598;BME280;22607;49.550;11.940;2023-08-31T07:17:30;96463.16;;;19.52;79.64
36598;BME280;22607;49.550;11.940;2023-08-31T07:19:58;96453.66;;;19.74;76.86
36598;BME280;22607;49.550;11.940;2023-08-31T07:22:24;96459.66;;;19.98;75.23
36598;BME280;22607;49.550;11.940;2023-08-31T07:24:52;96477.88;;;19.02;75.85
36598;BME280;22607;49.550;11.940;2023-08-31T07:27:19;96473.13;;;19.04;76.75
36598;BME280;22607;49.550;11.940;2023-08-31T07:29:45;96474.69;;;18.16;82.44
36598;BME280;22607;49.550;11.940;2023-08-31T07:32:12;96481.72;;;19.06;78.81
36598;BME280;22607;49.550;11.940;2023-08-31T07:34:39;96481.44;;;19.20;77.49
36598;BME280;22607;49.550;11.940;2023-08-31T07:37:05;96476.97;;;20.13;70.54
36598;BME280;22607;49.550;11.940;2023-08-31T07:39:32;96487.47;;;20.19;71.46
36598;BME280;22607;49.550;11.940;2023-08-31T07:42:07;96496.75;;;20.00;73.83
36598;BME280;22607;49.550;11.940;2023-08-31T07:44:43;96491.81;;;19.62;72.74
36598;BME280;22607;49.550;11.940;2023-08-31T07:47:16;96499.16;;;19.55;73.41
36598;BME280;22607;49.550;11.940;2023-08-31T07:49:45;96503.88;;;20.11;72.12
36598;BME280;22607;49.550;11.940;2023-08-31T07:52:11;96495.03;;;20.28;68.33
36598;BME280;22607;49.550;11.940;2023-08-31T07:54:38;96493.41;;;19.92;68.55
36598;BME280;22607;49.550;11.940;2023-08-31T07:57:15;96507.59;;;20.10;66.10
36598;BME280;22607;49.550;11.940;2023-08-31T07:59:45;96515.47;;;20.05;69.72
36598;BME280;22607;49.550;11.940;2023-08-31T08:02:12;96508.50;;;19.17;69.10
36598;BME280;22607;49.550;11.940;2023-08-31T08:04:53;96517.09;;;18.23;71.67
36598;BME280;22607;49.550;11.940;2023-08-31T08:07:20;96520.59;;;17.93;75.70
36598;BME280;22607;49.550;11.940;2023-08-31T08:09:46;96527.09;;;17.97;75.56
36598;BME280;22607;49.550;11.940;2023-08-31T08:12:14;96523.00;;;17.21;78.16
36598;BME280;22607;49.550;11.940;2023-08-31T08:14:41;96523.13;;;18.78;74.14
36598;BME280;22607;49.550;11.940;2023-08-31T08:17:07;96520.25;;;19.45;73.27
36598;BME280;22607;49.550;11.940;2023-08-31T08:19:34;96521.63;;;20.40;68.20
36598;BME280;22607;49.550;11.940;2023-08-31T08:22:00;96520.53;;;19.89;66.80
36598;BME280;22607;49.550;11.940;2023-08-31T08:24:27;96525.03;;;20.01;64.31
36598;BME280;22607;49.550;11.940;2023-08-31T08:26:54;96524.81;;;20.76;62.19
36598;BME280;22607;49.550;11.940;2023-08-31T08:29:20;96519.63;;;21.04;62.19
36598;BME280;22607;49.550;11.940;2023-08-31T08:31:47;96521.25;;;19.85;64.87
36598;BME280;22607;49.550;11.940;2023-08-31T08:34:17;96531.88;;;20.65;64.01
36598;BME280;22607;49.550;11.940;2023-08-31T08:36:43;96530.00;;;20.83;61.55
36598;BME280;22607;49.550;11.940;2023-08-31T08:39:11;96530.56;;;20.85;62.99
36598;BME280;22607;49.550;11.940;2023-08-31T08:41:39;96542.06;;;20.68;62.13
36598;BME280;22607;49.550;11.940;2023-08-31T08:44:07;96544.25;;;20.54;60.26
36598;BME280;22607;49.550;11.940;2023-08-31T08:46:36;96536.22;;;21.50;60.96
36598;BME280;22607;49.550;11.940;2023-08-31T08:49:04;96539.22;;;21.82;58.32
36598;BME280;22607;49.550;11.940;2023-08-31T08:51:35;96512.31;;;21.94;59.34
36598;BME280;22607;49.550;11.940;2023-08-31T08:54:02;96522.34;;;21.76;56.31
36598;BME280;22607;49.550;11.940;2023-08-31T08:56:30;96527.25;;;21.40;57.36
36598;BME280;22607;49.550;11.940;2023-08-31T08:58:57;96530.03;;;21.05;58.79
36598;BME280;22607;49.550;11.940;2023-08-31T09:01:24;96534.47;;;20.60;59.31
36598;BME280;22607;49.550;11.940;2023-08-31T09:03:51;96544.44;;;19.55;61.92
36598;BME280;22607;49.550;11.940;2023-08-31T09:06:18;96533.59;;;20.71;61.00
36598;BME280;22607;49.550;11.940;2023-08-31T09:08:53;96543.84;;;19.82;60.36
36598;BME280;22607;49.550;11.940;2023-08-31T09:11:22;96542.06;;;20.17;63.58
36598;BME280;22607;49.550;11.940;2023-08-31T09:13:50;96539.97;;;20.36;61.79
36598;BME280;22607;49.550;11.940;2023-08-31T09:16:29;96537.09;;;19.62;62.08
36598;BME280;22607;49.550;11.940;2023-08-31T09:18:57;96549.38;;;19.22;61.90
36598;BME280;22607;49.550;11.940;2023-08-31T09:24:17;96543.13;;;19.17;59.37
36598;BME280;22607;49.550;11.940;2023-08-31T09:26:58;96557.94;;;18.65;60.93
36598;BME280;22607;49.550;11.940;2023-08-31T09:29:25;96551.50;;;18.84;63.51
36598;BME280;22607;49.550;11.940;2023-08-31T09:31:51;96552.38;;;19.02;60.06
36598;BME280;22607;49.550;11.940;2023-08-31T09:34:18;96539.38;;;19.41;58.04
36598;BME280;22607;49.550;11.940;2023-08-31T09:36:45;96536.31;;;19.62;59.63
36598;BME280;22607;49.550;11.940;2023-08-31T09:39:14;96541.75;;;20.13;58.69
36598;BME280;22607;49.550;11.940;2023-08-31T09:41:54;96544.91;;;20.10;57.06
36598;BME280;22607;49.550;11.940;2023-08-31T09:44:21;96539.19;;;20.53;56.01
36598;BME280;22607;49.550;11.940;2023-08-31T09:46:48;96532.34;;;20.96;54.75
36598;BME280;22607;49.550;11.940;2023-08-31T09:49:17;96542.72;;;20.07;56.01
36598;BME280;22607;49.550;11.940;2023-08-31T09:51:45;96548.09;;;19.25;56.42
36598;BME280;22607;49.550;11.940;2023-08-31T09:54:17;96557.47;;;18.92;59.58
36598;BME280;22607;49.550;11.940;2023-08-31T09:56:46;96545.56;;;19.06;60.33
36598;BME280;22607;49.550;11.940;2023-08-31T09:59:15;96551.94;;;18.69;59.85
36598;BME280;22607;49.550;11.940;2023-08-31T10:01:44;96553.44;;;18.53;58.86
36598;BME280;22607;49.550;11.940;2023-08-31T10:04:13;96558.88;;;18.58;60.36
36598;BME280;22607;49.550;11.940;2023-08-31T10:06:40;96569.06;;;18.49;61.13
36598;BME280;22607;49.550;11.940;2023-08-31T10:09:07;96570.44;;;18.52;60.23
36598;BME280;22607;49.550;11.940;2023-08-31T10:11:38;96571.00;;;19.02;60.79
36598;BME280;22607;49.550;11.940;2023-08-31T10:14:11;96575.53;;;18.89;59.53
36598;BME280;22607;49.550;11.940;2023-08-31T10:16:39;96579.53;;;18.32;61.63
36598;BME280;22607;49.550;11.940;2023-08-31T10:19:07;96570.25;;;18.23;60.09
36598;BME280;22607;49.550;11.940;2023-08-31T10:21:34;96578.03;;;18.48;60.35
36598;BME280;22607;49.550;11.940;2023-08-31T10:24:01;96585.44;;;18.46;60.07
36598;BME280;22607;49.550;11.940;2023-08-31T10:26:30;96585.69;;;18.45;62.21
36598;BME280;22607;49.550;11.940;2023-08-31T10:28:58;96568.59;;;19.24;60.73
36598;BME280;22607;49.550;11.940;2023-08-31T10:31:29;96568.31;;;19.79;59.72
36598;BME280;22607;49.550;11.940;2023-08-31T10:33:59;96561.56;;;19.88;57.98
36598;BME280;22607;49.550;11.940;2023-08-31T10:36:45;96563.03;;;19.14;58.88
36598;BME280;22607;49.550;11.940;2023-08-31T10:39:20;96554.84;;;19.57;60.18
36598;BME280;22607;49.550;11.940;2023-08-31T10:41:54;96568.69;;;20.29;60.02
36598;BME280;22607;49.550;11.940;2023-08-31T10:46:51;96568.31;;;19.79;60.44
36598;BME280;22607;49.550;11.940;2023-08-31T10:49:19;96556.88;;;20.25;60.25
36598;BME280;22607;49.550;11.940;2023-08-31T10:51:58;96567.81;;;20.80;59.01
36598;BME280;22607;49.550;11.940;2023-08-31T10:54:55;96558.41;;;20.20;59.54
36598;BME280;22607;49.550;11.940;2023-08-31T10:57:30;96564.38;;;20.45;56.27
36598;BME280;22607;49.550;11.940;2023-08-31T10:59:58;96546.69;;;20.22;54.53
36598;BME280;22607;49.550;11.940;2023-08-31T11:02:33;96557.66;;;20.08;54.83
36598;BME280;22607;49.550;11.940;2023-08-31T11:05:01;96559.63;;;19.42;57.47
36598;BME280;22607;49.550;11.940;2023-08-31T11:07:31;96550.03;;;19.71;54.82
36598;BME280;22607;49.550;11.940;2023-08-31T11:10:12;96565.28;;;19.46;53.49
36598;BME280;22607;49.550;11.940;2023-08-31T11:12:40;96567.41;;;19.73;56.12
36598;BME280;22607;49.550;11.940;2023-08-31T11:15:07;96555.97;;;20.02;55.59
36598;BME280;22607;49.550;11.940;2023-08-31T11:17:34;96564.63;;;19.97;55.62
36598;BME280;22607;49.550;11.940;2023-08-31T11:20:01;96568.63;;;19.83;55.97
36598;BME280;22607;49.550;11.940;2023-08-31T11:22:31;96573.00;;;19.89;56.43
36598;BME280;22607;49.550;11.940;2023-08-31T11:24:59;96559.34;;;19.85;54.24
36598;BME280;22607;49.550;11.940;2023-08-31T11:27:26;96558.94;;;19.35;54.94
36598;BME280;22607;49.550;11.940;2023-08-31T11:29:52;96563.72;;;18.97;56.84
36598;BME280;22607;49.550;11.940;2023-08-31T11:32:19;96560.34;;;19.26;56.87
36598;BME280;22607;49.550;11.940;2023-08-31T11:34:49;96573.09;;;19.00;56.92
36598;BME280;22607;49.550;11.940;2023-08-31T11:37:16;96573.28;;;19.34;56.82
36598;BME280;22607;49.550;11.940;2023-08-31T11:39:51;96570.47;;;19.53;55.38
36598;BME280;22607;49.550;11.940;2023-08-31T11:42:19;96569.69;;;20.11;54.93
36598;BME280;22607;49.550;11.940;2023-08-31T11:44:48;96571.00;;;19.96;54.96
36598;BME280;22607;49.550;11.940;2023-08-31T11:47:15;96576.47;;;19.89;55.55
36598;BME280;22607;49.550;11.940;2023-08-31T11:49:43;96574.38;;;19.91;53.17
36598;BME280;22607;49.550;11.940;2023-08-31T11:52:11;96575.63;;;19.72;53.10
36598;BME280;22607;49.550;11.940;2023-08-31T11:54:40;96570.22;;;20.25;52.08
36598;BME280;22607;49.550;11.940;2023-08-31T11:57:07;96571.56;;;20.10;54.08
36598;BME280;22607;49.550;11.940;2023-08-31T11:59:36;96575.03;;;20.11;54.79
36598;BME280;22607;49.550;11.940;2023-08-31T12:02:07;96578.28;;;20.13;51.02
36598;BME280;22607;49.550;11.940;2023-08-31T12:04:44;96590.34;;;19.62;53.36
36598;BME280;22607;49.550;11.940;2023-08-31T12:07:12;96582.13;;;19.64;53.78
36598;BME280;22607;49.550;11.940;2023-08-31T12:09:42;96577.47;;;19.30;55.72
36598;BME280;22607;49.550;11.940;2023-08-31T12:12:13;96577.56;;;19.35;54.85
36598;BME280;22607;49.550;11.940;2023-08-31T12:14:40;96590.44;;;19.38;55.08
36598;BME280;22607;49.550;11.940;2023-08-31T12:17:08;96587.94;;;19.61;56.34
36598;BME280;22607;49.550;11.940;2023-08-31T12:19:38;96573.31;;;19.75;53.42
36598;BME280;22607;49.550;11.940;2023-08-31T12:22:06;96584.47;;;19.89;54.12
36598;BME280;22607;49.550;11.940;2023-08-31T12:24:40;96584.75;;;19.76;54.68
36598;BME280;22607;49.550;11.940;2023-08-31T12:27:10;96581.91;;;19.94;52.77
36598;BME280;22607;49.550;11.940;2023-08-31T12:29:37;96587.66;;;19.74;54.20
36598;BME280;22607;49.550;11.940;2023-08-31T12:32:05;96583.56;;;19.84;53.25
36598;BME280;22607;49.550;11.940;2023-08-31T12:34:31;96580.56;;;19.80;52.24
36598;BME280;22607;49.550;11.940;2023-08-31T12:36:58;96575.56;;;19.84;52.85
36598;BME280;22607;49.550;11.940;2023-08-31T12:39:29;96578.88;;;19.74;52.77
36598;BME280;22607;49.550;11.940;2023-08-31T12:41:55;96580.28;;;20.23;51.35
36598;BME280;22607;49.550;11.940;2023-08-31T12:44:38;96578.47;;;19.82;51.80
36598;BME280;22607;49.550;11.940;2023-08-31T12:47:05;96583.16;;;19.75;52.56
36598;BME280;22607;49.550;11.940;2023-08-31T12:49:31;96599.44;;;19.49;52.76
36598;BME280;22607;49.550;11.940;2023-08-31T12:51:58;96588.94;;;19.72;53.64
36598;BME280;22607;49.550;11.940;2023-08-31T12:54:25;96578.69;;;19.51;53.11
36598;BME280;22607;49.550;11.940;2023-08-31T12:56:52;96585.13;;;19.67;53.64
36598;BME280;22607;49.550;11.940;2023-08-31T12:59:18;96593.88;;;19.51;52.46
36598;BME280;22607;49.550;11.940;2023-08-31T13:01:46;96590.50;;;19.55;54.19
36598;BME280;22607;49.550;11.940;2023-08-31T13:04:13;96593.44;;;19.83;52.26
36598;BME280;22607;49.550;11.940;2023-08-31T13:06:40;96594.69;;;19.39;53.19
36598;BME280;22607;49.550;11.940;2023-08-31T13:09:13;96587.66;;;19.74;54.47
36598;BME280;22607;49.550;11.940;2023-08-31T13:11:40;96595.34;;;19.59;53.35
36598;BME280;22607;49.550;11.940;2023-08-31T13:14:07;96590.53;;;19.85;51.19
36598;BME280;22607;49.550;11.940;2023-08-31T13:16:33;96578.59;;;19.87;51.22
36598;BME280;22607;49.550;11.940;2023-08-31T13:19:03;96584.78;;;20.05;51.69